createdAt,value
2022-12-31T00:02:20.905Z,1.20
2022-12-31T00:06:12.320Z,1.63
2022-12-31T00:09:54.026Z,2.07
2022-12-31T00:13:36.569Z,2.00
2022-12-31T00:17:18.311Z,2.07
2022-12-31T00:21:02.002Z,1.97
2022-12-31T00:24:43.731Z,2.40
2022-12-31T00:28:25.513Z,2.40
2022-12-31T00:32:07.238Z,3.27
2022-12-31T00:35:49.012Z,2.10
2022-12-31T00:39:30.758Z,1.70
2022-12-31T00:43:12.486Z,1.10
2022-12-31T00:46:54.238Z,1.10
2022-12-31T00:50:36.265Z,1.17
2022-12-31T00:54:17.989Z,1.20
2022-12-31T00:57:59.749Z,1.80
2022-12-31T01:01:42.605Z,1.63
2022-12-31T01:05:24.575Z,1.33
2022-12-31T01:09:07.343Z,0.87
2022-12-31T01:12:49.109Z,0.90
2022-12-31T01:16:39.417Z,1.17
2022-12-31T01:20:21.144Z,1.33
2022-12-31T01:24:03.233Z,1.17
2022-12-31T01:27:44.996Z,0.70
2022-12-31T01:31:27.429Z,0.80
2022-12-31T01:35:09.661Z,1.33
2022-12-31T01:38:52.558Z,0.60
2022-12-31T01:42:34.321Z,0.53
2022-12-31T01:46:36.986Z,0.60
2022-12-31T01:50:24.438Z,0.60
2022-12-31T01:54:09.137Z,0.90
2022-12-31T01:57:54.847Z,0.47
2022-12-31T02:01:38.506Z,0.50
2022-12-31T02:05:34.097Z,1.53
2022-12-31T02:09:16.168Z,0.80
2022-12-31T02:12:58.603Z,0.57
2022-12-31T02:17:18.198Z,0.50
2022-12-31T02:21:06.081Z,0.30
2022-12-31T02:25:06.521Z,0.20
2022-12-31T02:29:14.789Z,0.65
2022-12-31T02:33:02.956Z,0.30
2022-12-31T02:36:47.912Z,0.30
2022-12-31T02:40:35.681Z,0.20
2022-12-31T02:44:33.186Z,0.30
2022-12-31T02:48:35.228Z,0.30
2022-12-31T02:52:35.095Z,0.30
2022-12-31T02:56:21.430Z,0.30
2022-12-31T03:00:29.417Z,0.20
2022-12-31T03:04:32.365Z,0.20
2022-12-31T03:08:24.382Z,0.40
2022-12-31T03:12:26.974Z,0.43
2022-12-31T03:16:08.794Z,0.50
2022-12-31T03:20:09.093Z,0.40
2022-12-31T03:24:09.693Z,0.30
2022-12-31T03:27:51.439Z,0.10
2022-12-31T03:31:33.155Z,0.10
2022-12-31T03:35:16.779Z,0.30
2022-12-31T03:38:58.494Z,0.20
2022-12-31T03:42:40.835Z,0.30
2022-12-31T03:46:22.619Z,0.20
2022-12-31T03:50:05.676Z,0.20
2022-12-31T03:53:47.411Z,0.50
2022-12-31T03:57:29.801Z,0.40
2022-12-31T04:01:11.601Z,0.50
2022-12-31T04:04:53.465Z,0.80
2022-12-31T04:08:35.198Z,0.80
2022-12-31T04:12:17.056Z,1.07
2022-12-31T04:15:58.841Z,1.20
2022-12-31T04:19:40.633Z,0.80
2022-12-31T04:23:22.384Z,1.17
2022-12-31T04:27:07.899Z,1.17
2022-12-31T04:30:49.968Z,1.20
2022-12-31T04:34:31.973Z,1.30
2022-12-31T04:38:13.693Z,1.43
2022-12-31T04:41:55.636Z,1.70
2022-12-31T04:45:37.391Z,1.67
2022-12-31T04:49:19.267Z,1.80
2022-12-31T04:53:00.987Z,1.77
2022-12-31T04:56:42.708Z,2.40
2022-12-31T05:00:24.438Z,1.60
2022-12-31T05:04:06.396Z,1.90
2022-12-31T05:07:48.150Z,1.83
2022-12-31T05:11:29.855Z,1.67
2022-12-31T05:15:11.595Z,2.10
2022-12-31T05:18:53.320Z,1.73
2022-12-31T05:22:35.119Z,1.70
2022-12-31T05:26:17.374Z,1.80
2022-12-31T05:29:59.381Z,1.70
2022-12-31T05:33:41.322Z,1.77
2022-12-31T05:37:23.051Z,1.70
2022-12-31T05:41:06.565Z,2.23
2022-12-31T05:44:48.400Z,2.03
2022-12-31T05:48:30.631Z,2.63
2022-12-31T05:52:12.531Z,2.40
2022-12-31T05:55:54.231Z,3.10
2022-12-31T05:59:36.032Z,2.73
2022-12-31T06:03:17.883Z,2.77
2022-12-31T06:06:59.694Z,3.30
2022-12-31T06:10:41.669Z,3.90
2022-12-31T06:14:23.512Z,3.97
2022-12-31T06:18:05.696Z,3.20
2022-12-31T06:21:47.495Z,2.90
2022-12-31T06:25:29.243Z,2.90
2022-12-31T06:29:11.004Z,3.63
2022-12-31T06:32:52.724Z,3.57
2022-12-31T06:36:34.420Z,3.73
2022-12-31T06:40:16.195Z,2.93
2022-12-31T06:43:57.938Z,3.80
2022-12-31T06:47:39.686Z,3.33
2022-12-31T06:51:22.413Z,3.60
2022-12-31T06:55:05.658Z,3.80
2022-12-31T06:58:47.811Z,3.30
2022-12-31T07:02:41.904Z,3.23
2022-12-31T07:06:44.144Z,2.73
2022-12-31T07:10:50.994Z,2.17
2022-12-31T07:14:40.698Z,2.20
2022-12-31T07:18:49.988Z,2.30
2022-12-31T07:22:32.110Z,2.30
2022-12-31T07:26:30.179Z,3.03
2022-12-31T07:30:27.989Z,1.90
2022-12-31T07:34:37.361Z,2.87
2022-12-31T07:38:42.631Z,2.43
2022-12-31T07:42:45.225Z,2.20
2022-12-31T07:46:35.736Z,3.00
2022-12-31T07:50:18.914Z,1.70
2022-12-31T07:54:00.652Z,1.97
2022-12-31T07:57:57.672Z,2.80
2022-12-31T08:02:04.167Z,2.07
2022-12-31T08:05:45.912Z,2.33
2022-12-31T08:09:37.531Z,2.50
2022-12-31T08:13:19.418Z,3.63
2022-12-31T08:17:01.359Z,3.10
2022-12-31T08:20:59.818Z,3.20
2022-12-31T08:25:03.002Z,3.33
2022-12-31T08:29:01.728Z,3.27
2022-12-31T08:32:55.747Z,3.60
2022-12-31T08:36:50.725Z,3.53
2022-12-31T08:40:54.509Z,3.70
2022-12-31T08:44:44.696Z,4.60
2022-12-31T08:48:39.345Z,3.35
2022-12-31T08:52:26.681Z,5.30
2022-12-31T08:56:28.669Z,5.00
2022-12-31T09:00:16.948Z,4.43
2022-12-31T09:04:01.706Z,4.53
2022-12-31T09:08:11.702Z,4.60
2022-12-31T09:11:57.303Z,4.90
2022-12-31T09:15:39.030Z,3.67
2022-12-31T09:19:20.824Z,3.83
2022-12-31T09:23:03.636Z,3.23
2022-12-31T09:27:10.352Z,3.93
2022-12-31T09:31:03.045Z,2.50
2022-12-31T09:35:12.581Z,2.97
2022-12-31T09:39:17.605Z,3.30
2022-12-31T09:43:37.113Z,3.13
2022-12-31T09:47:54.528Z,2.90
2022-12-31T09:52:18.070Z,2.30
2022-12-31T09:56:15.731Z,2.70
2022-12-31T10:00:12.159Z,3.87
2022-12-31T10:04:08.954Z,3.23
2022-12-31T10:07:53.890Z,3.33
2022-12-31T10:12:05.120Z,3.40
2022-12-31T10:16:03.372Z,2.93
2022-12-31T10:20:24.462Z,2.63
2022-12-31T10:28:22.140Z,2.07
2022-12-31T10:32:17.537Z,1.87
2022-12-31T10:36:13.991Z,1.77
2022-12-31T10:40:10.613Z,1.73
2022-12-31T10:44:30.176Z,1.83
2022-12-31T10:49:09.566Z,2.00
2022-12-31T10:53:12.316Z,1.90
2022-12-31T10:57:09.031Z,2.30
2022-12-31T11:00:57.680Z,2.40
2022-12-31T11:04:42.080Z,2.33
2022-12-31T11:08:48.482Z,2.70
2022-12-31T11:12:53.098Z,3.03
2022-12-31T11:16:51.990Z,2.73
2022-12-31T11:20:52.076Z,2.40
2022-12-31T11:25:03.577Z,3.10
2022-12-31T11:29:16.051Z,2.30
2022-12-31T11:33:25.860Z,2.00
2022-12-31T11:37:36.775Z,1.73
2022-12-31T11:45:12.627Z,2.23
2022-12-31T11:49:16.459Z,2.20
2022-12-31T11:53:10.871Z,2.23
2022-12-31T11:57:17.639Z,2.50
2022-12-31T12:01:05.979Z,3.63
2022-12-31T12:04:50.083Z,3.37
2022-12-31T12:08:33.581Z,2.27
2022-12-31T12:12:16.507Z,1.70
2022-12-31T12:16:05.736Z,2.23
2022-12-31T12:19:55.077Z,1.53
2022-12-31T12:23:37.702Z,1.77
2022-12-31T12:27:26.588Z,0.90
2022-12-31T12:31:19.738Z,0.93
2022-12-31T12:35:01.586Z,0.50
2022-12-31T12:38:43.867Z,0.90
2022-12-31T12:42:25.672Z,0.30
2022-12-31T12:46:27.677Z,0.30
2022-12-31T12:50:21.782Z,0.20
2022-12-31T12:54:19.942Z,0.30
2022-12-31T12:58:07.741Z,0.23
2022-12-31T13:02:10.896Z,0.40
2022-12-31T13:06:01.617Z,0.30
2022-12-31T13:09:55.187Z,0.30
2022-12-31T13:13:43.551Z,0.30
2022-12-31T13:17:35.189Z,0.20
2022-12-31T13:21:54.358Z,0.30
2022-12-31T13:25:59.983Z,0.20
2022-12-31T13:29:43.993Z,0.20
2022-12-31T13:33:32.934Z,0.10
2022-12-31T13:37:27.248Z,0.10
2022-12-31T13:41:45.040Z,0.10
2022-12-31T13:45:32.643Z,0.10
2022-12-31T13:49:16.943Z,0.20
2022-12-31T13:53:17.165Z,0.20
2022-12-31T13:57:03.899Z,0.20
2022-12-31T14:01:07.041Z,0.40
2022-12-31T14:04:59.132Z,0.80
2022-12-31T14:08:40.927Z,0.20
2022-12-31T14:12:44.660Z,0.30
2022-12-31T14:16:41.438Z,0.40
2022-12-31T14:20:44.808Z,0.20
2022-12-31T14:24:46.033Z,0.20
2022-12-31T14:28:35.625Z,0.20
2022-12-31T14:32:23.658Z,0.20
2022-12-31T14:36:38.334Z,0.20
2022-12-31T14:40:51.039Z,0.27
2022-12-31T14:45:00.146Z,0.53
2022-12-31T14:49:16.112Z,0.83
2022-12-31T14:53:03.859Z,0.40
2022-12-31T14:56:45.963Z,0.30
2022-12-31T15:00:32.781Z,3.20
2022-12-31T15:04:15.158Z,0.70
2022-12-31T15:08:25.783Z,0.60
2022-12-31T15:12:31.701Z,1.00
2022-12-31T15:16:35.486Z,0.63
2022-12-31T15:20:38.790Z,0.50
2022-12-31T15:24:22.645Z,1.73
2022-12-31T15:28:30.205Z,1.13
2022-12-31T15:32:22.619Z,1.27
2022-12-31T15:36:20.449Z,0.90
2022-12-31T15:40:25.006Z,0.67
2022-12-31T15:44:12.469Z,1.10
2022-12-31T15:47:59.077Z,0.50
2022-12-31T15:52:01.147Z,0.50
2022-12-31T15:55:48.581Z,0.47
2022-12-31T15:59:31.357Z,0.43
2022-12-31T16:03:22.554Z,0.60
2022-12-31T16:07:04.440Z,0.80
2022-12-31T16:10:47.102Z,0.90
2022-12-31T16:14:36.466Z,0.70
2022-12-31T16:18:22.769Z,0.80
2022-12-31T16:22:14.396Z,0.90
2022-12-31T16:25:59.840Z,1.03
2022-12-31T16:29:55.521Z,4.80
2022-12-31T16:33:37.689Z,0.50
2022-12-31T16:37:21.696Z,0.40
2022-12-31T16:41:03.488Z,0.30
2022-12-31T16:44:46.783Z,0.20
2022-12-31T16:48:28.803Z,0.20
2022-12-31T16:52:31.761Z,0.43
2022-12-31T16:56:26.388Z,0.30
2022-12-31T17:00:15.498Z,0.50
2022-12-31T17:04:06.003Z,0.40
2022-12-31T17:07:47.888Z,0.60
2022-12-31T17:11:56.796Z,0.50
2022-12-31T17:15:43.806Z,0.90
2022-12-31T17:19:39.765Z,1.07
2022-12-31T17:23:34.309Z,1.00
2022-12-31T17:27:16.795Z,1.40
2022-12-31T17:31:02.523Z,1.00
2022-12-31T17:34:51.803Z,1.30
2022-12-31T17:38:36.352Z,0.97
2022-12-31T17:42:32.755Z,0.90
2022-12-31T17:46:16.908Z,1.70
2022-12-31T17:49:58.706Z,1.30
2022-12-31T17:53:40.440Z,1.40
2022-12-31T17:57:26.354Z,1.57
2022-12-31T18:01:09.713Z,1.80
2022-12-31T18:04:53.103Z,1.33
2022-12-31T18:08:34.839Z,1.33
2022-12-31T18:12:23.623Z,1.03
2022-12-31T18:16:05.785Z,1.23
2022-12-31T18:20:04.716Z,1.13
2022-12-31T18:23:48.732Z,0.90
2022-12-31T18:27:30.772Z,0.80
2022-12-31T18:31:28.687Z,1.07
2022-12-31T18:36:06.454Z,0.80
2022-12-31T18:39:21.747Z,1.57
2022-12-31T18:43:05.305Z,0.60
2022-12-31T18:46:47.436Z,0.60
2022-12-31T18:50:29.320Z,0.40
2022-12-31T18:54:16.644Z,0.33
2022-12-31T18:57:58.366Z,0.30
2022-12-31T19:01:41.339Z,0.40
2022-12-31T19:05:28.740Z,0.47
2022-12-31T19:09:30.634Z,0.40
2022-12-31T19:13:17.043Z,0.30
2022-12-31T19:20:41.402Z,0.27
2022-12-31T19:24:26.637Z,0.40
2022-12-31T19:28:23.916Z,0.40
2022-12-31T19:32:06.172Z,0.30
2022-12-31T19:35:48.329Z,0.33
2022-12-31T19:39:30.091Z,0.40
2022-12-31T19:43:17.461Z,0.40
2022-12-31T19:46:59.166Z,0.40
2022-12-31T19:50:46.855Z,0.70
2022-12-31T19:54:28.575Z,0.20
2022-12-31T19:58:20.235Z,0.20
2022-12-31T20:02:02.979Z,0.20
2022-12-31T20:05:45.890Z,0.20
2022-12-31T20:09:27.660Z,0.20
2022-12-31T20:13:11.611Z,0.30
2022-12-31T20:16:53.457Z,0.30
2022-12-31T20:20:35.319Z,0.30
2022-12-31T20:24:17.215Z,0.30
2022-12-31T20:27:59.097Z,0.20
2022-12-31T20:31:40.839Z,0.80
2022-12-31T20:35:22.700Z,0.60
2022-12-31T20:39:05.346Z,0.40
2022-12-31T20:42:47.127Z,0.67
2022-12-31T20:46:30.480Z,0.50
2022-12-31T20:50:13.077Z,0.60
2022-12-31T20:54:01.898Z,0.53
2022-12-31T20:57:43.940Z,0.30
2022-12-31T21:01:32.236Z,0.43
2022-12-31T21:05:28.021Z,0.30
2022-12-31T21:09:10.163Z,0.20
2022-12-31T21:12:54.655Z,0.30
2022-12-31T21:16:36.727Z,0.50
2022-12-31T21:20:18.515Z,0.40
2022-12-31T21:24:00.279Z,1.20
2022-12-31T21:27:42.040Z,2.50
2022-12-31T21:31:24.038Z,3.30
2022-12-31T21:35:41.180Z,2.63
2022-12-31T21:39:08.199Z,2.37
2022-12-31T21:42:49.903Z,1.97
2022-12-31T21:46:31.746Z,1.63
2022-12-31T21:50:13.566Z,1.63
2022-12-31T21:53:55.725Z,1.00
2022-12-31T21:58:07.142Z,1.27
2022-12-31T22:02:15.526Z,1.40
2022-12-31T22:06:10.305Z,1.00
2022-12-31T22:09:52.080Z,1.10
2022-12-31T22:13:34.737Z,1.10
2022-12-31T22:17:16.578Z,1.23
2022-12-31T22:21:10.818Z,1.20
2022-12-31T22:24:57.686Z,1.53
2022-12-31T22:28:43.697Z,2.27
2022-12-31T22:32:25.391Z,3.37
2022-12-31T22:36:10.644Z,3.03
2022-12-31T22:39:52.344Z,2.97
2022-12-31T22:43:36.606Z,1.83
2022-12-31T22:47:18.378Z,1.17
2022-12-31T22:51:00.251Z,0.80
2022-12-31T22:54:44.718Z,0.90
2022-12-31T22:58:29.131Z,0.67
2022-12-31T23:02:10.955Z,0.70
2022-12-31T23:05:53.091Z,0.67
2022-12-31T23:09:53.203Z,0.60
2022-12-31T23:13:59.920Z,1.03
2022-12-31T23:18:00.283Z,7.43
2022-12-31T23:22:00.622Z,1.20
2022-12-31T23:25:50.991Z,0.95
2022-12-31T23:29:32.839Z,1.17
2022-12-31T23:33:19.514Z,1.37
2022-12-31T23:37:02.641Z,2.03
2022-12-31T23:40:44.927Z,0.80
2022-12-31T23:44:27.783Z,0.90
2022-12-31T23:48:09.592Z,0.90
2022-12-31T23:51:51.499Z,0.87
2022-12-31T23:55:33.249Z,1.10
2022-12-31T23:59:14.987Z,1.07
